createdAt,value
2023-04-25T00:02:16.385Z,96386.88
2023-04-25T00:04:43.586Z,96382.94
2023-04-25T00:07:11.630Z,96380.05
2023-04-25T00:09:38.446Z,96377.34
2023-04-25T00:12:05.635Z,96376.66
2023-04-25T00:14:35.262Z,96372.15
2023-04-25T00:17:03.830Z,96374.50
2023-04-25T00:19:31.279Z,96367.20
2023-04-25T00:21:58.532Z,96366.35
2023-04-25T00:24:25.367Z,96360.81
2023-04-25T00:26:52.152Z,96359.35
2023-04-25T00:29:18.960Z,96361.41
2023-04-25T00:31:45.882Z,96359.89
2023-04-25T00:34:12.863Z,96361.42
2023-04-25T00:36:39.649Z,96359.81
2023-04-25T00:39:07.512Z,96362.81
2023-04-25T00:41:34.413Z,96358.86
2023-04-25T00:44:01.845Z,96358.44
2023-04-25T00:46:28.761Z,96361.22
2023-04-25T00:48:56.281Z,96362.91
2023-04-25T00:51:23.168Z,96360.09
2023-04-25T00:53:51.270Z,96356.19
2023-04-25T00:56:18.635Z,96353.02
2023-04-25T00:58:45.504Z,96353.46
2023-04-25T01:01:12.738Z,96354.80
2023-04-25T01:03:42.070Z,96354.90
2023-04-25T01:06:10.617Z,96353.59
2023-04-25T01:08:38.774Z,96351.36
2023-04-25T01:11:06.454Z,96345.83
2023-04-25T01:13:33.802Z,96346.78
2023-04-25T01:16:01.248Z,96348.80
2023-04-25T01:18:28.066Z,96345.75
2023-04-25T01:20:55.161Z,96344.61
2023-04-25T01:23:22.710Z,96349.03
2023-04-25T01:25:50.626Z,96347.27
2023-04-25T01:28:17.721Z,96349.89
2023-04-25T01:30:45.185Z,96347.84
2023-04-25T01:33:12.817Z,96352.48
2023-04-25T01:35:39.723Z,96353.20
2023-04-25T01:38:06.601Z,96351.38
2023-04-25T01:40:33.604Z,96349.29
2023-04-25T01:43:00.356Z,96349.83
2023-04-25T01:45:27.224Z,96349.73
2023-04-25T01:47:54.253Z,96350.88
2023-04-25T01:50:21.352Z,96353.70
2023-04-25T01:52:48.810Z,96351.66
2023-04-25T01:55:15.736Z,96347.52
2023-04-25T01:57:52.062Z,96349.54
2023-04-25T02:00:22.590Z,96345.63
2023-04-25T02:02:53.017Z,96344.30
2023-04-25T02:05:27.581Z,96343.08
2023-04-25T02:07:54.406Z,96342.14
2023-04-25T02:10:21.360Z,96341.00
2023-04-25T02:13:05.704Z,96337.48
2023-04-25T02:15:42.488Z,96332.46
2023-04-25T02:18:19.690Z,96329.20
2023-04-25T02:20:46.668Z,96323.34
2023-04-25T02:23:13.662Z,96320.66
2023-04-25T02:25:40.541Z,96319.51
2023-04-25T02:28:07.347Z,96319.69
2023-04-25T02:30:34.281Z,96320.39
2023-04-25T02:33:01.270Z,96317.70
2023-04-25T02:35:29.842Z,96315.33
2023-04-25T02:40:15.731Z,96321.36
2023-04-25T02:42:42.792Z,96320.61
2023-04-25T02:45:10.514Z,96319.52
2023-04-25T02:47:37.405Z,96320.55
2023-04-25T02:50:04.803Z,96320.45
2023-04-25T02:52:31.954Z,96319.41
2023-04-25T02:55:11.239Z,96320.23
2023-04-25T02:57:38.524Z,96320.47
2023-04-25T03:00:06.430Z,96319.08
2023-04-25T03:02:33.658Z,96310.88
2023-04-25T03:05:00.437Z,96307.81
2023-04-25T03:07:27.676Z,96303.19
2023-04-25T03:09:54.322Z,96303.70
2023-04-25T03:12:20.975Z,96303.70
2023-04-25T03:14:47.664Z,96305.88
2023-04-25T03:17:16.429Z,96306.70
2023-04-25T03:19:43.855Z,96304.89
2023-04-25T03:22:11.047Z,96307.00
2023-04-25T03:24:37.901Z,96307.79
2023-04-25T03:27:04.923Z,96305.52
2023-04-25T03:29:31.804Z,96305.83
2023-04-25T03:31:59.361Z,96309.45
2023-04-25T03:34:26.495Z,96308.52
2023-04-25T03:36:53.423Z,96307.00
2023-04-25T03:39:20.281Z,96308.54
2023-04-25T03:41:48.930Z,96309.64
2023-04-25T03:44:15.769Z,96310.69
2023-04-25T03:46:42.438Z,96308.56
2023-04-25T03:49:09.146Z,96310.67
2023-04-25T03:51:56.115Z,96308.25
2023-04-25T03:54:23.004Z,96309.04
2023-04-25T03:56:55.547Z,96310.81
2023-04-25T03:59:23.213Z,96311.05
2023-04-25T04:01:50.772Z,96310.63
2023-04-25T04:04:17.817Z,96311.38
2023-04-25T04:06:46.129Z,96314.18
2023-04-25T04:09:24.374Z,96312.33
2023-04-25T04:11:51.030Z,96309.80
2023-04-25T04:14:18.161Z,96310.41
2023-04-25T04:16:46.811Z,96307.63
2023-04-25T04:19:13.784Z,96308.88
2023-04-25T04:21:44.885Z,96307.36
2023-04-25T04:24:12.097Z,96306.73
2023-04-25T04:26:51.099Z,96309.10
2023-04-25T04:29:30.271Z,96309.00
2023-04-25T04:32:24.023Z,96309.86
2023-04-25T04:34:50.640Z,96308.94
2023-04-25T04:37:18.981Z,96309.25
2023-04-25T04:39:46.025Z,96309.04
2023-04-25T04:42:31.956Z,96308.13
2023-04-25T04:44:59.008Z,96305.73
2023-04-25T04:47:46.211Z,96301.17
2023-04-25T04:50:48.617Z,96301.67
2023-04-25T04:53:33.800Z,96302.27
2023-04-25T04:56:23.963Z,96305.15
2023-04-25T04:58:55.709Z,96301.70
2023-04-25T05:01:48.496Z,96303.09
2023-04-25T05:04:51.903Z,96303.36
2023-04-25T05:07:35.093Z,96305.77
2023-04-25T05:10:26.115Z,96304.89
2023-04-25T05:13:22.097Z,96305.14
2023-04-25T05:15:57.946Z,96303.27
2023-04-25T05:18:36.732Z,96299.25
2023-04-25T05:21:35.946Z,96300.81
2023-04-25T05:24:02.665Z,96298.89
2023-04-25T05:26:48.284Z,96298.64
2023-04-25T05:29:40.346Z,96298.47
2023-04-25T05:32:25.449Z,96296.56
2023-04-25T05:34:52.502Z,96296.80
2023-04-25T05:37:37.227Z,96298.31
2023-04-25T05:40:12.138Z,96300.05
2023-04-25T05:42:45.659Z,96300.67
2023-04-25T05:45:21.489Z,96301.44
2023-04-25T05:48:08.905Z,96296.70
2023-04-25T05:50:52.189Z,96297.55
2023-04-25T05:53:37.944Z,96295.77
2023-04-25T05:56:05.103Z,96294.86
2023-04-25T05:58:31.929Z,96295.69
2023-04-25T06:01:00.033Z,96294.45
2023-04-25T06:03:27.413Z,96295.69
2023-04-25T06:05:54.256Z,96296.90
2023-04-25T06:08:21.181Z,96293.78
2023-04-25T06:10:47.978Z,96289.05
2023-04-25T06:13:15.838Z,96288.88
2023-04-25T06:15:43.399Z,96288.59
2023-04-25T06:18:10.169Z,96286.94
2023-04-25T06:20:36.812Z,96286.83
2023-04-25T06:23:03.668Z,96289.50
2023-04-25T06:25:38.300Z,96289.84
2023-04-25T06:28:05.613Z,96291.19
2023-04-25T06:30:32.812Z,96288.46
2023-04-25T06:33:03.843Z,96292.42
2023-04-25T06:35:31.139Z,96291.92
2023-04-25T06:37:58.173Z,96294.50
2023-04-25T06:40:25.333Z,96295.27
2023-04-25T06:42:52.845Z,96294.41
2023-04-25T06:45:39.304Z,96292.79
2023-04-25T06:48:08.260Z,96292.79
2023-04-25T06:50:35.193Z,96289.47
2023-04-25T06:53:02.039Z,96281.96
2023-04-25T06:55:30.996Z,96283.91
2023-04-25T06:58:18.714Z,96280.81
2023-04-25T07:01:14.790Z,96282.42
2023-04-25T07:03:41.718Z,96283.04
2023-04-25T07:06:18.573Z,96279.71
2023-04-25T07:08:46.145Z,96279.48
2023-04-25T07:11:14.118Z,96276.80
2023-04-25T07:13:41.306Z,96276.67
2023-04-25T07:16:08.239Z,96276.03
2023-04-25T07:18:35.400Z,96270.02
2023-04-25T07:21:02.390Z,96271.77
2023-04-25T07:23:30.425Z,96273.52
2023-04-25T07:25:59.458Z,96269.14
2023-04-25T07:28:26.847Z,96272.75
2023-04-25T07:30:53.587Z,96273.52
2023-04-25T07:33:21.064Z,96268.83
2023-04-25T07:35:48.122Z,96270.16
2023-04-25T07:38:15.427Z,96270.60
2023-04-25T07:40:42.247Z,96266.64
2023-04-25T07:43:09.752Z,96268.51
2023-04-25T07:45:46.386Z,96264.69
2023-04-25T07:48:20.291Z,96264.21
2023-04-25T07:50:47.349Z,96262.20
2023-04-25T07:53:14.930Z,96261.02
2023-04-25T07:55:51.012Z,96260.34
2023-04-25T07:58:22.262Z,96256.58
2023-04-25T08:00:52.276Z,96258.38
2023-04-25T08:03:34.304Z,96255.08
2023-04-25T08:21:19.666Z,96248.88
2023-04-25T08:44:11.862Z,96240.61
2023-04-25T08:46:40.133Z,96240.88
2023-04-25T08:49:15.725Z,96244.11
2023-04-25T08:51:50.924Z,96246.72
2023-04-25T08:56:48.322Z,96250.41
2023-04-25T08:59:15.678Z,96248.25
2023-04-25T09:01:43.796Z,96248.64
2023-04-25T09:04:11.437Z,96246.41
2023-04-25T09:06:38.493Z,96242.17
2023-04-25T09:09:06.414Z,96244.09
2023-04-25T09:11:34.487Z,96246.63
2023-04-25T09:14:15.257Z,96249.92
2023-04-25T09:17:02.863Z,96243.75
2023-04-25T09:19:46.368Z,96248.55
2023-04-25T09:22:22.750Z,96250.47
2023-04-25T09:24:51.542Z,96250.30
2023-04-25T09:27:20.595Z,96252.77
2023-04-25T09:29:48.873Z,96253.12
2023-04-25T09:32:18.487Z,96254.62
2023-04-25T09:34:53.238Z,96253.11
2023-04-25T09:37:21.824Z,96251.88
2023-04-25T09:40:14.750Z,96249.46
2023-04-25T09:42:54.603Z,96246.38
2023-04-25T09:45:21.671Z,96242.20
2023-04-25T09:47:50.262Z,96245.23
2023-04-25T09:50:19.368Z,96244.56
2023-04-25T09:53:03.076Z,96241.76
2023-04-25T09:55:34.734Z,96239.83
2023-04-25T09:58:05.735Z,96237.66
2023-04-25T10:00:33.473Z,96232.12
2023-04-25T10:03:07.394Z,96231.89
2023-04-25T10:05:53.997Z,96232.29
2023-04-25T10:08:21.115Z,96229.06
2023-04-25T10:10:48.533Z,96223.79
2023-04-25T10:13:15.742Z,96228.02
2023-04-25T10:15:42.414Z,96224.56
2023-04-25T10:18:09.216Z,96222.88
2023-04-25T10:20:36.102Z,96221.19
2023-04-25T10:23:07.885Z,96219.98
2023-04-25T10:25:35.982Z,96217.23
2023-04-25T10:28:04.540Z,96216.15
2023-04-25T10:30:32.118Z,96217.91
2023-04-25T10:32:59.811Z,96213.50
2023-04-25T10:35:30.731Z,96212.70
2023-04-25T10:38:11.584Z,96212.40
2023-04-25T10:40:38.934Z,96211.52
2023-04-25T10:43:34.032Z,96213.02
2023-04-25T10:46:01.151Z,96208.02
2023-04-25T10:48:29.155Z,96206.20
2023-04-25T10:51:10.667Z,96207.40
2023-04-25T10:53:37.588Z,96208.08
2023-04-25T10:56:20.915Z,96207.42
2023-04-25T10:58:48.717Z,96205.62
2023-04-25T11:01:21.509Z,96203.77
2023-04-25T11:03:50.879Z,96207.48
2023-04-25T11:06:37.862Z,96207.05
2023-04-25T11:09:09.092Z,96205.56
2023-04-25T11:11:37.087Z,96208.84
2023-04-25T11:14:03.824Z,96207.23
2023-04-25T11:16:32.773Z,96205.02
2023-04-25T11:18:59.911Z,96207.21
2023-04-25T11:21:30.003Z,96200.25
2023-04-25T11:23:56.847Z,96201.91
2023-04-25T11:26:25.234Z,96198.58
2023-04-25T11:28:52.004Z,96194.05
2023-04-25T11:31:22.856Z,96193.39
2023-04-25T11:33:49.977Z,96190.31
2023-04-25T11:36:17.023Z,96184.75
2023-04-25T11:38:45.685Z,96180.98
2023-04-25T11:41:12.993Z,96180.14
2023-04-25T11:43:41.598Z,96177.53
2023-04-25T11:46:10.778Z,96176.99
2023-04-25T11:48:41.271Z,96172.16
2023-04-25T11:51:09.121Z,96169.47
2023-04-25T11:53:36.682Z,96168.85
2023-04-25T11:56:12.946Z,96164.42
2023-04-25T11:59:17.109Z,96161.27
2023-04-25T12:01:51.991Z,96159.81
2023-04-25T12:04:23.121Z,96156.71
2023-04-25T12:06:54.363Z,96161.98
2023-04-25T12:09:28.814Z,96158.41
2023-04-25T12:11:56.408Z,96157.27
2023-04-25T12:14:27.433Z,96156.48
2023-04-25T12:17:02.130Z,96155.38
2023-04-25T12:19:33.893Z,96151.89
2023-04-25T12:22:01.829Z,96151.86
2023-04-25T12:24:29.496Z,96147.40
2023-04-25T12:27:01.291Z,96149.27
2023-04-25T12:29:34.875Z,96149.61
2023-04-25T12:32:06.244Z,96147.16
2023-04-25T12:34:32.881Z,96147.85
2023-04-25T12:37:00.032Z,96146.31
2023-04-25T12:39:26.863Z,96148.14
2023-04-25T12:41:56.349Z,96149.77
2023-04-25T12:44:23.330Z,96154.37
2023-04-25T12:46:50.559Z,96152.64
2023-04-25T12:49:19.512Z,96151.71
2023-04-25T12:51:47.205Z,96154.46
2023-04-25T12:54:14.786Z,96151.19
2023-04-25T12:56:41.622Z,96152.40
2023-04-25T12:59:08.313Z,96152.70
2023-04-25T13:01:36.481Z,96150.73
2023-04-25T13:04:03.852Z,96159.77
2023-04-25T13:06:31.796Z,96167.90
2023-04-25T13:08:59.289Z,96175.12
2023-04-25T13:11:26.468Z,96177.48
2023-04-25T13:13:53.526Z,96179.09
2023-04-25T13:16:22.050Z,96179.40
2023-04-25T13:18:49.183Z,96179.59
2023-04-25T13:21:15.849Z,96175.49
2023-04-25T13:23:47.395Z,96172.87
2023-04-25T13:26:14.256Z,96173.63
2023-04-25T13:28:42.243Z,96175.72
2023-04-25T13:31:13.975Z,96175.14
2023-04-25T13:33:40.523Z,96176.08
2023-04-25T13:36:07.302Z,96181.77
2023-04-25T13:38:34.738Z,96190.12
2023-04-25T13:41:01.716Z,96182.52
2023-04-25T13:43:28.356Z,96191.32
2023-04-25T13:45:55.029Z,96199.10
2023-04-25T13:48:22.971Z,96197.17
2023-04-25T13:50:49.616Z,96204.30
2023-04-25T13:53:16.373Z,96206.54
2023-04-25T13:55:43.166Z,96210.17
2023-04-25T13:58:10.224Z,96214.74
2023-04-25T14:00:39.230Z,96216.52
2023-04-25T14:03:07.837Z,96222.95
2023-04-25T14:05:38.339Z,96228.15
2023-04-25T14:08:06.794Z,96229.66
2023-04-25T14:10:33.866Z,96233.88
2023-04-25T14:13:01.743Z,96242.84
2023-04-25T14:15:29.899Z,96243.23
2023-04-25T14:17:56.765Z,96244.11
2023-04-25T14:20:24.301Z,96239.34
2023-04-25T14:22:51.096Z,96240.96
2023-04-25T14:25:17.908Z,96241.70
2023-04-25T14:27:47.982Z,96241.73
2023-04-25T14:30:15.026Z,96240.63
2023-04-25T14:32:42.436Z,96240.02
2023-04-25T14:35:09.643Z,96239.38
2023-04-25T14:37:36.628Z,96245.86
2023-04-25T14:40:03.736Z,96239.08
2023-04-25T14:42:32.643Z,96244.61
2023-04-25T14:44:59.260Z,96245.81
2023-04-25T14:47:26.327Z,96246.55
2023-04-25T14:49:54.409Z,96243.55
2023-04-25T14:52:21.405Z,96239.33
2023-04-25T14:57:14.629Z,96241.71
2023-04-25T14:59:41.951Z,96253.10
2023-04-25T15:02:08.884Z,96250.59
2023-04-25T15:04:36.218Z,96258.96
2023-04-25T15:07:03.409Z,96257.39
2023-04-25T15:09:30.767Z,96255.89
2023-04-25T15:11:57.999Z,96256.06
2023-04-25T15:14:24.691Z,96261.95
2023-04-25T15:16:51.478Z,96269.72
2023-04-25T15:19:18.538Z,96261.63
2023-04-25T15:21:45.356Z,96265.92
2023-04-25T15:24:12.508Z,96268.39
2023-04-25T15:26:39.893Z,96269.80
2023-04-25T15:29:07.042Z,96272.85
2023-04-25T15:31:34.159Z,96273.57
2023-04-25T15:34:01.080Z,96275.95
2023-04-25T15:36:28.218Z,96273.80
2023-04-25T15:38:54.821Z,96275.41
2023-04-25T15:41:22.028Z,96274.33
2023-04-25T15:43:49.007Z,96276.45
2023-04-25T15:46:16.504Z,96281.85
2023-04-25T15:48:43.640Z,96283.20
2023-04-25T15:51:11.195Z,96282.38
2023-04-25T15:53:38.580Z,96278.75
2023-04-25T15:56:05.703Z,96280.16
2023-04-25T15:58:32.893Z,96282.49
2023-04-25T16:00:59.833Z,96275.61
2023-04-25T16:03:27.273Z,96279.48
2023-04-25T16:05:54.129Z,96281.19
2023-04-25T16:08:21.825Z,96279.40
2023-04-25T16:10:48.607Z,96282.20
2023-04-25T16:13:16.156Z,96284.20
2023-04-25T16:15:42.917Z,96286.25
2023-04-25T16:18:10.250Z,96286.48
2023-04-25T16:20:37.111Z,96285.80
2023-04-25T16:23:03.896Z,96291.48
2023-04-25T16:25:30.872Z,96295.56
2023-04-25T16:27:57.469Z,96289.41
2023-04-25T16:30:24.170Z,96293.17
2023-04-25T16:32:51.587Z,96290.99
2023-04-25T16:35:18.478Z,96291.97
2023-04-25T16:37:45.610Z,96286.42
2023-04-25T16:40:12.472Z,96290.83
2023-04-25T16:42:39.480Z,96295.73
2023-04-25T16:45:06.685Z,96301.00
2023-04-25T16:47:34.128Z,96295.14
2023-04-25T16:50:01.067Z,96298.37
2023-04-25T16:52:28.251Z,96305.88
2023-04-25T16:54:55.125Z,96301.33
2023-04-25T16:57:21.770Z,96294.83
2023-04-25T16:59:48.547Z,96294.14
2023-04-25T17:02:16.485Z,96298.33
2023-04-25T17:04:43.431Z,96302.30
2023-04-25T17:07:10.699Z,96303.63
2023-04-25T17:09:37.684Z,96305.79
2023-04-25T17:12:06.306Z,96308.27
2023-04-25T17:14:35.521Z,96316.35
2023-04-25T17:17:03.193Z,96319.47
2023-04-25T17:19:31.156Z,96316.45
2023-04-25T17:21:57.764Z,96313.38
2023-04-25T17:24:24.965Z,96315.98
2023-04-25T17:26:51.845Z,96322.23
2023-04-25T17:29:18.879Z,96322.20
2023-04-25T17:31:46.056Z,96327.55
2023-04-25T17:34:17.304Z,96327.28
2023-04-25T17:36:45.019Z,96327.97
2023-04-25T17:39:14.188Z,96334.05
2023-04-25T17:41:41.293Z,96340.33
2023-04-25T17:44:08.578Z,96334.80
2023-04-25T17:46:36.989Z,96339.39
2023-04-25T17:49:03.749Z,96341.70
2023-04-25T17:51:33.374Z,96345.67
2023-04-25T17:54:00.232Z,96340.80
2023-04-25T17:56:27.781Z,96345.80
2023-04-25T17:58:55.288Z,96345.34
2023-04-25T18:01:22.537Z,96337.64
2023-04-25T18:03:50.651Z,96340.36
2023-04-25T18:06:17.730Z,96347.23
2023-04-25T18:08:45.230Z,96350.64
2023-04-25T18:11:12.543Z,96352.25
2023-04-25T18:13:40.118Z,96355.70
2023-04-25T18:16:07.195Z,96353.40
2023-04-25T18:18:35.353Z,96364.03
2023-04-25T18:21:04.363Z,96368.84
2023-04-25T18:23:33.221Z,96374.70
2023-04-25T18:26:00.272Z,96367.69
2023-04-25T18:28:27.786Z,96376.30
2023-04-25T18:30:57.583Z,96372.10
2023-04-25T18:33:25.274Z,96369.80
2023-04-25T18:38:34.973Z,96373.94
2023-04-25T18:41:10.663Z,96377.40
2023-04-25T18:43:51.104Z,96379.23
2023-04-25T18:46:21.759Z,96379.23
2023-04-25T18:48:50.225Z,96379.59
2023-04-25T18:51:17.498Z,96376.05
2023-04-25T18:53:44.793Z,96372.12
2023-04-25T18:56:13.098Z,96376.03
2023-04-25T18:58:40.176Z,96381.63
2023-04-25T19:01:08.526Z,96379.64
2023-04-25T19:03:35.516Z,96385.77
2023-04-25T19:06:04.738Z,96384.66
2023-04-25T19:08:32.024Z,96394.23
2023-04-25T19:11:07.643Z,96391.46
2023-04-25T19:13:38.188Z,96394.08
2023-04-25T19:16:04.903Z,96396.17
2023-04-25T19:18:31.642Z,96400.77
2023-04-25T19:20:59.671Z,96398.95
2023-04-25T19:23:26.469Z,96404.39
2023-04-25T19:25:53.554Z,96408.52
2023-04-25T19:28:22.258Z,96407.20
2023-04-25T19:30:48.881Z,96412.02
2023-04-25T19:33:17.077Z,96417.56
2023-04-25T19:35:44.067Z,96412.49
2023-04-25T19:38:11.044Z,96409.55
2023-04-25T19:40:38.300Z,96410.61
2023-04-25T19:43:05.755Z,96413.02
2023-04-25T19:45:33.661Z,96409.34
2023-04-25T19:48:01.162Z,96408.65
2023-04-25T19:50:27.863Z,96412.20
2023-04-25T19:52:55.514Z,96407.34
2023-04-25T19:55:22.728Z,96406.42
2023-04-25T19:57:49.542Z,96404.59
2023-04-25T20:00:19.847Z,96398.88
2023-04-25T20:02:47.297Z,96402.56
2023-04-25T20:05:15.572Z,96400.23
2023-04-25T20:07:42.536Z,96401.70
2023-04-25T20:10:11.955Z,96399.29
2023-04-25T20:12:41.862Z,96401.75
2023-04-25T20:15:11.144Z,96405.93
2023-04-25T20:17:40.080Z,96408.65
2023-04-25T20:20:09.582Z,96405.83
2023-04-25T20:22:38.077Z,96407.39
2023-04-25T20:25:06.427Z,96413.77
2023-04-25T20:27:33.349Z,96411.81
2023-04-25T20:30:04.054Z,96415.36
2023-04-25T20:32:31.690Z,96415.70
2023-04-25T20:34:58.358Z,96410.04
2023-04-25T20:37:25.252Z,96413.94
2023-04-25T20:39:52.212Z,96419.10
2023-04-25T20:42:19.199Z,96419.20
2023-04-25T20:44:45.835Z,96415.96
2023-04-25T20:47:12.809Z,96414.91
2023-04-25T20:49:39.736Z,96414.08
2023-04-25T20:52:07.126Z,96426.82
2023-04-25T20:54:33.926Z,96424.77
2023-04-25T20:57:01.892Z,96432.08
2023-04-25T20:59:29.026Z,96430.93
2023-04-25T21:01:55.869Z,96433.23
2023-04-25T21:04:23.110Z,96434.23
2023-04-25T21:06:49.845Z,96434.65
2023-04-25T21:09:18.102Z,96432.47
2023-04-25T21:11:45.564Z,96436.20
2023-04-25T21:14:12.322Z,96433.55
2023-04-25T21:16:40.185Z,96439.65
2023-04-25T21:19:07.003Z,96443.60
2023-04-25T21:21:33.694Z,96443.64
2023-04-25T21:24:00.422Z,96441.38
2023-04-25T21:26:27.219Z,96443.83
2023-04-25T21:28:54.352Z,96439.34
2023-04-25T21:31:21.738Z,96441.01
2023-04-25T21:33:48.427Z,96442.89
2023-04-25T21:36:15.254Z,96443.98
2023-04-25T21:38:41.850Z,96446.28
2023-04-25T21:41:08.479Z,96448.63
2023-04-25T21:43:35.886Z,96446.97
2023-04-25T21:48:26.669Z,96444.54
2023-04-25T21:50:55.122Z,96445.69
2023-04-25T21:53:21.790Z,96446.10
2023-04-25T21:55:48.431Z,96444.96
2023-04-25T21:58:15.497Z,96448.88
2023-04-25T22:00:43.822Z,96444.90
2023-04-25T22:03:10.647Z,96449.86
2023-04-25T22:05:37.692Z,96442.83
2023-04-25T22:08:04.665Z,96443.64
2023-04-25T22:10:32.869Z,96441.64
2023-04-25T22:12:59.877Z,96442.29
2023-04-25T22:15:26.831Z,96441.45
2023-04-25T22:17:54.626Z,96442.17
2023-04-25T22:20:25.628Z,96438.92
2023-04-25T22:22:52.714Z,96443.99
2023-04-25T22:25:20.576Z,96440.02
2023-04-25T22:27:47.676Z,96439.95
2023-04-25T22:30:14.596Z,96440.41
2023-04-25T22:32:42.591Z,96444.15
2023-04-25T22:35:10.461Z,96444.77
2023-04-25T22:37:37.787Z,96443.87
2023-04-25T22:40:08.517Z,96441.79
2023-04-25T22:42:42.647Z,96444.84
2023-04-25T22:45:10.189Z,96449.13
2023-04-25T22:47:38.008Z,96450.60
2023-04-25T22:50:12.376Z,96447.88
2023-04-25T22:52:39.969Z,96452.52
2023-04-25T22:55:06.903Z,96447.39
2023-04-25T22:57:36.302Z,96447.91
2023-04-25T23:00:09.951Z,96449.30
2023-04-25T23:02:37.523Z,96453.00
2023-04-25T23:05:06.445Z,96445.73
2023-04-25T23:07:34.408Z,96445.67
2023-04-25T23:10:01.419Z,96451.52
2023-04-25T23:12:29.018Z,96451.42
2023-04-25T23:14:55.625Z,96448.63
2023-04-25T23:17:22.313Z,96446.68
2023-04-25T23:19:48.985Z,96447.61
2023-04-25T23:22:15.850Z,96454.85
2023-04-25T23:24:43.019Z,96455.58
2023-04-25T23:27:09.808Z,96455.27
2023-04-25T23:29:36.478Z,96456.52
2023-04-25T23:32:03.665Z,96454.83
2023-04-25T23:34:31.443Z,96451.42
2023-04-25T23:37:00.780Z,96451.63
2023-04-25T23:39:27.729Z,96454.86
2023-04-25T23:41:54.368Z,96452.30
2023-04-25T23:44:21.662Z,96453.89
2023-04-25T23:46:49.186Z,96454.34
2023-04-25T23:49:15.845Z,96453.74
2023-04-25T23:51:42.478Z,96458.39
2023-04-25T23:54:09.270Z,96454.93
2023-04-25T23:56:36.489Z,96455.02
2023-04-25T23:59:03.545Z,96454.98
